createdAt,value
2022-07-27T00:01:22.064Z,10.05
2022-07-27T00:03:48.828Z,10.18
2022-07-27T00:06:15.478Z,10.00
2022-07-27T00:08:42.018Z,10.93
2022-07-27T00:11:08.661Z,10.40
2022-07-27T00:13:35.177Z,11.05
2022-07-27T00:16:02.001Z,9.63
2022-07-27T00:18:28.817Z,9.23
2022-07-27T00:20:55.354Z,8.98
2022-07-27T00:23:21.898Z,10.93
2022-07-27T00:25:48.382Z,7.68
2022-07-27T00:28:14.911Z,8.25
2022-07-27T00:30:41.446Z,8.80
2022-07-27T00:33:08.021Z,8.25
2022-07-27T00:35:34.502Z,8.18
2022-07-27T00:38:02.551Z,8.98
2022-07-27T00:40:29.039Z,12.23
2022-07-27T00:42:55.642Z,9.02
2022-07-27T00:45:22.194Z,8.48
2022-07-27T00:47:51.824Z,10.68
2022-07-27T00:50:21.379Z,14.77
2022-07-27T00:52:47.896Z,9.93
2022-07-27T00:55:14.423Z,9.68
2022-07-27T00:57:58.983Z,10.15
2022-07-27T01:00:26.459Z,8.85
2022-07-27T01:02:53.019Z,10.05
2022-07-27T01:05:20.432Z,10.35
2022-07-27T01:07:47.512Z,13.00
2022-07-27T01:10:14.332Z,11.55
2022-07-27T01:12:41.152Z,14.02
2022-07-27T01:15:07.785Z,11.15
2022-07-27T01:17:34.389Z,8.88
2022-07-27T01:20:01.119Z,8.35
2022-07-27T01:22:27.680Z,10.38
2022-07-27T01:24:54.224Z,8.80
2022-07-27T01:27:20.815Z,8.27
2022-07-27T01:29:47.553Z,12.73
2022-07-27T01:32:14.076Z,9.10
2022-07-27T01:34:40.642Z,9.82
2022-07-27T01:37:07.159Z,9.00
2022-07-27T01:39:33.873Z,8.10
2022-07-27T01:42:00.535Z,9.68
2022-07-27T01:44:27.153Z,12.52
2022-07-27T01:46:53.858Z,10.95
2022-07-27T01:49:20.756Z,14.70
2022-07-27T01:51:47.322Z,11.52
2022-07-27T01:54:14.080Z,17.20
2022-07-27T01:56:40.760Z,12.73
2022-07-27T01:59:07.386Z,12.55
2022-07-27T02:01:34.018Z,13.35
2022-07-27T02:04:00.619Z,12.15
2022-07-27T02:06:27.203Z,10.23
2022-07-27T02:08:53.696Z,12.63
2022-07-27T02:11:38.898Z,15.05
2022-07-27T02:14:05.402Z,12.07
2022-07-27T02:16:32.026Z,13.20
2022-07-27T02:18:58.608Z,16.23
2022-07-27T02:21:25.770Z,14.25
2022-07-27T02:23:52.333Z,14.10
2022-07-27T02:26:18.979Z,18.27
2022-07-27T02:28:45.451Z,14.70
2022-07-27T02:31:12.143Z,14.73
2022-07-27T02:33:38.745Z,16.60
2022-07-27T02:36:05.530Z,16.02
2022-07-27T02:38:32.173Z,12.77
2022-07-27T02:40:58.721Z,13.35
2022-07-27T02:43:25.297Z,15.82
2022-07-27T02:45:51.972Z,12.70
2022-07-27T02:48:19.592Z,12.23
2022-07-27T02:50:46.132Z,12.35
2022-07-27T02:53:12.948Z,12.13
2022-07-27T02:55:39.434Z,12.65
2022-07-27T02:58:05.939Z,13.95
2022-07-27T03:00:32.636Z,14.15
2022-07-27T03:02:59.148Z,11.38
2022-07-27T03:05:25.645Z,11.65
2022-07-27T03:07:52.247Z,14.82
2022-07-27T03:10:19.904Z,12.25
2022-07-27T03:12:46.469Z,12.98
2022-07-27T03:15:13.126Z,12.32
2022-07-27T03:17:39.692Z,14.02
2022-07-27T03:20:07.980Z,11.77
2022-07-27T03:22:36.015Z,10.50
2022-07-27T03:25:02.505Z,11.65
2022-07-27T03:27:29.393Z,15.30
2022-07-27T03:29:56.452Z,12.60
2022-07-27T03:32:23.030Z,13.20
2022-07-27T03:34:49.568Z,13.43
2022-07-27T03:37:17.294Z,14.20
2022-07-27T03:39:43.842Z,13.40
2022-07-27T03:42:12.321Z,18.70
2022-07-27T03:44:39.098Z,10.70
2022-07-27T03:47:05.681Z,15.65
2022-07-27T03:49:32.248Z,13.00
2022-07-27T03:51:58.811Z,16.40
2022-07-27T03:54:25.350Z,12.75
2022-07-27T03:56:51.867Z,13.38
2022-07-27T03:59:18.408Z,13.88
2022-07-27T04:01:44.991Z,15.35
2022-07-27T04:04:11.591Z,11.73
2022-07-27T04:06:38.070Z,12.82
2022-07-27T04:09:08.507Z,13.45
2022-07-27T04:11:40.294Z,12.45
2022-07-27T04:14:11.012Z,16.00
2022-07-27T04:16:39.514Z,13.63
2022-07-27T04:19:06.477Z,14.00
2022-07-27T04:21:33.824Z,13.55
2022-07-27T04:24:00.823Z,14.52
2022-07-27T04:26:27.337Z,13.60
2022-07-27T04:28:54.084Z,10.27
2022-07-27T04:31:20.773Z,14.88
2022-07-27T04:33:47.332Z,12.77
2022-07-27T04:36:13.949Z,12.93
2022-07-27T04:38:40.468Z,11.43
2022-07-27T04:41:06.966Z,13.75
2022-07-27T04:43:33.506Z,14.77
2022-07-27T04:46:02.120Z,13.40
2022-07-27T04:48:28.634Z,13.02
2022-07-27T04:50:55.196Z,13.13
2022-07-27T04:53:21.810Z,11.35
2022-07-27T04:55:48.378Z,14.73
2022-07-27T04:58:14.913Z,15.32
2022-07-27T05:00:41.522Z,13.77
2022-07-27T05:03:08.357Z,18.17
2022-07-27T05:05:34.867Z,18.73
2022-07-27T05:08:01.551Z,14.27
2022-07-27T05:10:28.225Z,14.57
2022-07-27T05:12:54.677Z,15.30
2022-07-27T05:15:21.225Z,15.82
2022-07-27T05:17:47.938Z,19.50
2022-07-27T05:20:14.704Z,14.05
2022-07-27T05:22:41.281Z,14.30
2022-07-27T05:25:08.072Z,16.58
2022-07-27T05:27:34.568Z,12.13
2022-07-27T05:30:01.054Z,15.75
2022-07-27T05:32:27.575Z,13.85
2022-07-27T05:34:54.079Z,14.88
2022-07-27T05:37:20.595Z,15.25
2022-07-27T05:39:47.129Z,15.50
2022-07-27T05:42:14.124Z,15.60
2022-07-27T05:44:40.601Z,16.88
2022-07-27T05:47:07.172Z,16.95
2022-07-27T05:49:38.109Z,12.95
2022-07-27T05:52:04.750Z,14.13
2022-07-27T05:54:31.282Z,13.50
2022-07-27T05:56:57.897Z,21.17
2022-07-27T05:59:24.469Z,17.90
2022-07-27T06:01:50.999Z,14.32
2022-07-27T06:04:18.297Z,19.02
2022-07-27T06:07:03.713Z,17.52
2022-07-27T06:09:31.028Z,11.43
2022-07-27T06:11:57.574Z,11.20
2022-07-27T06:14:24.072Z,8.75
2022-07-27T06:16:50.685Z,12.57
2022-07-27T06:19:17.233Z,11.18
2022-07-27T06:21:43.729Z,12.98
2022-07-27T06:24:10.254Z,10.88
2022-07-27T06:26:36.798Z,11.10
2022-07-27T06:29:03.330Z,13.02
2022-07-27T06:31:37.231Z,12.07
2022-07-27T06:34:04.272Z,9.32
2022-07-27T06:36:39.959Z,10.07
2022-07-27T06:39:06.475Z,9.52
2022-07-27T06:41:34.712Z,9.75
2022-07-27T06:44:01.186Z,10.82
2022-07-27T06:46:27.734Z,11.18
2022-07-27T06:48:56.874Z,11.60
2022-07-27T06:51:23.882Z,12.90
2022-07-27T06:53:54.599Z,11.15
2022-07-27T06:56:21.420Z,11.82
2022-07-27T06:58:48.018Z,11.00
2022-07-27T07:01:14.739Z,8.77
2022-07-27T07:03:41.324Z,8.95
2022-07-27T07:06:07.934Z,10.32
2022-07-27T07:08:34.549Z,10.30
2022-07-27T07:11:01.045Z,8.50
2022-07-27T07:13:27.637Z,11.38
2022-07-27T07:15:54.207Z,9.15
2022-07-27T07:18:20.811Z,9.20
2022-07-27T07:20:47.323Z,10.10
2022-07-27T07:23:14.230Z,9.07
2022-07-27T07:25:41.031Z,10.90
2022-07-27T07:28:07.574Z,10.07
2022-07-27T07:30:34.227Z,11.13
2022-07-27T07:33:00.772Z,9.95
2022-07-27T07:35:27.373Z,9.63
2022-07-27T07:37:53.964Z,10.88
2022-07-27T07:43:07.190Z,11.35
2022-07-27T07:45:34.280Z,11.07
2022-07-27T07:48:00.887Z,12.88
2022-07-27T07:50:27.768Z,13.32
2022-07-27T07:52:54.831Z,12.40
2022-07-27T07:55:21.845Z,11.18
2022-07-27T07:57:48.535Z,12.93
2022-07-27T08:00:17.660Z,18.85
2022-07-27T08:02:48.650Z,9.55
2022-07-27T08:05:15.677Z,14.70
2022-07-27T08:07:42.479Z,12.10
2022-07-27T08:10:09.350Z,13.10
2022-07-27T08:12:36.369Z,14.23
2022-07-27T08:15:03.310Z,13.25
2022-07-27T08:17:29.862Z,14.10
2022-07-27T08:19:56.367Z,11.77
2022-07-27T08:22:22.957Z,14.25
2022-07-27T08:24:49.456Z,12.45
2022-07-27T08:27:16.010Z,11.63
2022-07-27T08:29:42.477Z,12.98
2022-07-27T08:32:09.047Z,12.63
2022-07-27T08:34:36.650Z,14.98
2022-07-27T08:37:07.575Z,13.20
2022-07-27T08:42:23.076Z,16.35
2022-07-27T08:44:49.646Z,15.85
2022-07-27T08:47:16.449Z,17.02
2022-07-27T08:49:44.259Z,14.32
2022-07-27T08:52:11.373Z,14.68
2022-07-27T08:54:41.043Z,13.93
2022-07-27T08:57:08.287Z,14.80
2022-07-27T08:59:34.906Z,13.68
2022-07-27T09:02:03.282Z,11.93
2022-07-27T09:04:30.266Z,15.35
2022-07-27T09:06:56.815Z,16.23
2022-07-27T09:09:23.382Z,17.58
2022-07-27T09:12:04.100Z,13.55
2022-07-27T09:14:31.057Z,16.35
2022-07-27T09:17:46.660Z,14.27
2022-07-27T09:19:54.904Z,16.25
2022-07-27T09:22:38.162Z,17.27
2022-07-27T09:25:04.949Z,15.27
2022-07-27T09:27:31.582Z,16.02
2022-07-27T09:30:02.829Z,16.58
2022-07-27T09:32:29.703Z,17.58
2022-07-27T09:34:56.423Z,16.52
2022-07-27T09:37:23.325Z,15.00
2022-07-27T09:39:49.906Z,17.65
2022-07-27T09:43:05.741Z,17.13
2022-07-27T09:45:07.754Z,16.20
2022-07-27T09:47:36.083Z,16.23
2022-07-27T09:50:26.323Z,18.33
2022-07-27T09:52:52.879Z,16.13
2022-07-27T09:55:22.429Z,15.77
2022-07-27T09:57:53.070Z,16.15
2022-07-27T10:00:19.844Z,15.90
2022-07-27T10:02:46.400Z,19.30
2022-07-27T10:05:18.773Z,16.38
2022-07-27T10:07:45.345Z,13.63
2022-07-27T10:10:12.676Z,15.80
2022-07-27T10:12:39.288Z,19.15
2022-07-27T10:15:06.264Z,17.85
2022-07-27T10:17:32.792Z,18.92
2022-07-27T10:19:59.320Z,18.60
2022-07-27T10:22:44.494Z,18.10
2022-07-27T10:25:10.992Z,16.63
2022-07-27T10:27:37.837Z,16.50
2022-07-27T10:30:04.663Z,15.85
2022-07-27T10:32:34.397Z,15.52
2022-07-27T10:35:01.398Z,13.23
2022-07-27T10:37:28.747Z,18.50
2022-07-27T10:40:16.289Z,18.38
2022-07-27T10:42:43.193Z,14.02
2022-07-27T10:45:13.570Z,12.85
2022-07-27T10:47:44.705Z,15.38
2022-07-27T10:50:17.409Z,12.85
2022-07-27T10:52:50.605Z,14.57
2022-07-27T10:55:37.486Z,11.82
2022-07-27T10:58:10.032Z,19.83
2022-07-27T11:01:03.244Z,13.27
2022-07-27T11:03:33.934Z,12.73
2022-07-27T11:06:30.692Z,14.27
2022-07-27T11:09:27.433Z,14.32
2022-07-27T11:11:39.668Z,11.55
2022-07-27T11:14:06.485Z,11.18
2022-07-27T11:16:36.910Z,11.75
2022-07-27T11:19:09.964Z,11.18
2022-07-27T11:21:37.860Z,9.35
2022-07-27T11:24:14.817Z,7.85
2022-07-27T11:26:45.366Z,7.50
2022-07-27T11:29:12.872Z,5.95
2022-07-27T11:31:57.603Z,7.53
2022-07-27T11:34:31.823Z,4.30
2022-07-27T11:37:13.370Z,5.82
2022-07-27T11:40:00.267Z,4.47
2022-07-27T11:42:36.566Z,5.20
2022-07-27T11:45:03.137Z,4.80
2022-07-27T11:47:30.802Z,6.05
2022-07-27T11:50:08.656Z,5.20
2022-07-27T11:52:35.315Z,5.57
2022-07-27T11:55:01.851Z,6.10
2022-07-27T11:57:32.517Z,4.97
2022-07-27T11:59:58.998Z,9.50
2022-07-27T12:02:27.438Z,7.75
2022-07-27T12:04:57.820Z,9.70
2022-07-27T12:07:29.423Z,9.40
2022-07-27T12:09:56.803Z,7.22
2022-07-27T12:12:24.049Z,9.90
2022-07-27T12:14:51.375Z,8.10
2022-07-27T12:17:25.656Z,9.55
2022-07-27T12:19:52.256Z,8.07
2022-07-27T12:22:25.838Z,8.23
2022-07-27T12:24:52.408Z,8.30
2022-07-27T12:27:19.122Z,7.95
2022-07-27T12:30:00.909Z,8.57
2022-07-27T12:32:27.659Z,5.65
2022-07-27T12:34:54.865Z,9.05
2022-07-27T12:37:22.514Z,8.15
2022-07-27T12:39:49.133Z,5.97
2022-07-27T12:42:15.860Z,7.78
2022-07-27T12:44:43.077Z,7.95
2022-07-27T12:47:35.742Z,7.95
2022-07-27T12:50:03.214Z,8.38
2022-07-27T12:52:29.830Z,8.85
2022-07-27T12:54:56.393Z,9.57
2022-07-27T12:57:46.334Z,7.50
2022-07-27T13:00:10.843Z,7.20
2022-07-27T13:02:37.463Z,6.18
2022-07-27T13:05:04.749Z,6.70
2022-07-27T13:07:31.258Z,5.97
2022-07-27T13:10:03.456Z,6.38
2022-07-27T13:12:30.789Z,6.32
2022-07-27T13:14:57.355Z,5.15
2022-07-27T13:17:23.934Z,6.93
2022-07-27T13:19:50.485Z,6.30
2022-07-27T13:22:17.297Z,5.57
2022-07-27T13:24:43.834Z,5.43
2022-07-27T13:27:10.620Z,4.90
2022-07-27T13:29:37.109Z,7.10
2022-07-27T13:32:03.977Z,5.05
2022-07-27T13:34:30.473Z,5.20
2022-07-27T13:36:57.021Z,5.05
2022-07-27T13:39:23.683Z,5.70
2022-07-27T13:41:54.992Z,6.57
2022-07-27T13:44:49.102Z,4.72
2022-07-27T13:47:08.969Z,6.05
2022-07-27T13:49:35.476Z,6.13
2022-07-27T13:52:02.110Z,6.80
2022-07-27T13:54:28.624Z,6.13
2022-07-27T13:56:55.188Z,5.97
2022-07-27T13:59:21.949Z,5.93
2022-07-27T14:01:52.574Z,5.05
2022-07-27T14:04:23.444Z,5.30
2022-07-27T14:06:52.285Z,4.32
2022-07-27T14:09:22.218Z,4.30
2022-07-27T14:11:52.702Z,8.82
2022-07-27T14:14:24.299Z,4.28
2022-07-27T14:16:53.940Z,6.38
2022-07-27T14:19:20.670Z,4.15
2022-07-27T14:21:48.012Z,4.38
2022-07-27T14:24:14.527Z,2.47
2022-07-27T14:26:41.022Z,4.82
2022-07-27T14:29:07.601Z,5.25
2022-07-27T14:31:35.118Z,4.18
2022-07-27T14:34:01.675Z,6.10
2022-07-27T14:36:28.558Z,5.38
2022-07-27T14:38:55.502Z,4.80
2022-07-27T14:41:22.016Z,3.75
2022-07-27T14:43:48.480Z,3.30
2022-07-27T14:46:15.098Z,4.60
2022-07-27T14:49:05.031Z,2.72
2022-07-27T14:51:28.469Z,3.03
2022-07-27T14:53:54.971Z,2.70
2022-07-27T14:56:21.563Z,2.35
2022-07-27T14:58:48.062Z,3.10
2022-07-27T15:01:17.357Z,2.05
2022-07-27T15:03:44.143Z,2.10
2022-07-27T15:06:10.714Z,2.72
2022-07-27T15:08:37.537Z,3.05
2022-07-27T15:11:06.383Z,2.08
2022-07-27T15:13:33.396Z,3.60
2022-07-27T15:16:00.243Z,1.70
2022-07-27T15:18:27.164Z,1.42
2022-07-27T15:20:53.751Z,1.40
2022-07-27T15:23:20.305Z,1.67
2022-07-27T15:25:47.035Z,1.20
2022-07-27T15:28:14.655Z,1.30
2022-07-27T15:30:41.181Z,0.90
2022-07-27T15:33:07.703Z,3.33
2022-07-27T15:35:34.335Z,3.97
2022-07-27T15:38:00.820Z,1.95
2022-07-27T15:40:41.923Z,1.20
2022-07-27T15:43:12.781Z,1.10
2022-07-27T15:45:40.372Z,1.90
2022-07-27T15:48:07.228Z,2.22
2022-07-27T15:50:33.946Z,1.20
2022-07-27T15:53:00.414Z,0.93
2022-07-27T15:55:26.974Z,2.47
2022-07-27T15:57:53.498Z,1.10
2022-07-27T16:00:20.115Z,1.55
2022-07-27T16:02:46.627Z,2.20
2022-07-27T16:05:14.911Z,2.50
2022-07-27T16:07:41.888Z,1.58
2022-07-27T16:10:09.795Z,1.80
2022-07-27T16:12:38.283Z,1.23
2022-07-27T16:15:05.436Z,2.58
2022-07-27T16:17:31.998Z,2.67
2022-07-27T16:19:58.575Z,0.90
2022-07-27T16:22:25.228Z,4.13
2022-07-27T16:24:51.786Z,1.10
2022-07-27T16:27:18.434Z,1.70
2022-07-27T16:29:44.940Z,0.85
2022-07-27T16:32:12.499Z,3.45
2022-07-27T16:34:39.876Z,5.93
2022-07-27T16:37:06.524Z,0.60
2022-07-27T16:39:35.459Z,1.33
2022-07-27T16:42:02.208Z,1.50
2022-07-27T16:44:28.769Z,2.08
2022-07-27T16:46:55.325Z,2.35
2022-07-27T16:49:22.377Z,1.45
2022-07-27T16:51:59.965Z,1.85
2022-07-27T16:54:26.457Z,1.50
2022-07-27T16:56:52.916Z,3.70
2022-07-27T16:59:19.466Z,2.35
2022-07-27T17:01:46.028Z,1.67
2022-07-27T17:04:12.702Z,1.70
2022-07-27T17:06:39.313Z,2.05
2022-07-27T17:09:06.212Z,1.00
2022-07-27T17:11:32.703Z,3.15
2022-07-27T17:14:04.158Z,1.67
2022-07-27T17:16:30.717Z,1.40
2022-07-27T17:19:01.935Z,2.45
2022-07-27T17:21:28.515Z,2.45
2022-07-27T17:23:55.037Z,1.67
2022-07-27T17:26:22.710Z,2.47
2022-07-27T17:28:51.816Z,4.97
2022-07-27T17:31:21.168Z,1.23
2022-07-27T17:33:48.062Z,2.08
2022-07-27T17:36:16.746Z,2.55
2022-07-27T17:38:44.000Z,3.97
2022-07-27T17:41:10.688Z,1.27
2022-07-27T17:43:38.891Z,1.58
2022-07-27T17:46:05.830Z,2.78
2022-07-27T17:48:34.005Z,1.40
2022-07-27T17:51:00.565Z,1.30
2022-07-27T17:53:27.068Z,2.58
2022-07-27T17:55:54.104Z,1.00
2022-07-27T17:58:20.566Z,3.45
2022-07-27T18:00:47.283Z,0.90
2022-07-27T18:03:15.488Z,1.20
2022-07-27T18:05:43.026Z,1.42
2022-07-27T18:08:09.930Z,2.08
2022-07-27T18:10:38.681Z,1.20
2022-07-27T18:13:05.485Z,1.83
2022-07-27T18:15:47.719Z,1.00
2022-07-27T18:18:15.730Z,1.00
2022-07-27T18:20:44.374Z,1.33
2022-07-27T18:23:11.202Z,2.25
2022-07-27T18:25:37.885Z,3.22
2022-07-27T18:28:04.494Z,1.23
2022-07-27T18:30:32.706Z,1.92
2022-07-27T18:32:59.322Z,1.73
2022-07-27T18:35:25.863Z,1.40
2022-07-27T18:37:52.336Z,1.27
2022-07-27T18:40:19.013Z,3.38
2022-07-27T18:42:46.529Z,3.83
2022-07-27T18:45:13.534Z,4.55
2022-07-27T18:47:49.233Z,2.30
2022-07-27T18:50:17.034Z,1.10
2022-07-27T18:52:43.633Z,1.40
2022-07-27T18:55:10.207Z,2.40
2022-07-27T18:57:36.782Z,1.48
2022-07-27T19:00:04.928Z,4.10
2022-07-27T19:02:38.813Z,2.55
2022-07-27T19:05:07.400Z,1.70
2022-07-27T19:07:37.085Z,1.40
2022-07-27T19:10:06.185Z,2.28
2022-07-27T19:12:32.723Z,3.72
2022-07-27T19:14:59.971Z,2.05
2022-07-27T19:17:26.573Z,1.73
2022-07-27T19:19:53.705Z,2.10
2022-07-27T19:22:23.259Z,1.60
2022-07-27T19:24:54.629Z,1.63
2022-07-27T19:27:21.657Z,1.60
2022-07-27T19:29:48.331Z,2.63
2022-07-27T19:32:15.158Z,1.63
2022-07-27T19:34:41.697Z,3.03
2022-07-27T19:37:08.540Z,4.30
2022-07-27T19:40:02.485Z,1.65
2022-07-27T19:42:23.350Z,3.08
2022-07-27T19:44:49.946Z,2.03
2022-07-27T19:47:17.055Z,2.10
2022-07-27T19:49:43.576Z,1.98
2022-07-27T19:52:10.065Z,3.05
2022-07-27T19:54:36.595Z,2.95
2022-07-27T19:57:03.191Z,2.10
2022-07-27T19:59:29.719Z,3.35
2022-07-27T20:02:16.900Z,1.70
2022-07-27T20:04:43.716Z,1.70
2022-07-27T20:07:10.330Z,2.88
2022-07-27T20:09:37.195Z,3.10
2022-07-27T20:12:04.624Z,2.08
2022-07-27T20:14:31.160Z,4.72
2022-07-27T20:16:57.726Z,3.17
2022-07-27T20:19:24.283Z,5.32
2022-07-27T20:21:50.793Z,2.40
2022-07-27T20:24:17.491Z,3.15
2022-07-27T20:26:48.631Z,3.92
2022-07-27T20:29:16.080Z,3.47
2022-07-27T20:31:43.166Z,3.40
2022-07-27T20:34:09.708Z,3.97
2022-07-27T20:36:36.299Z,6.00
2022-07-27T20:39:04.922Z,10.35
2022-07-27T20:41:34.126Z,6.55
2022-07-27T20:44:00.716Z,3.95
2022-07-27T20:46:27.239Z,4.32
2022-07-27T20:48:53.860Z,2.33
2022-07-27T20:51:20.486Z,4.20
2022-07-27T20:53:47.113Z,4.53
2022-07-27T20:56:13.703Z,3.53
2022-07-27T20:58:40.314Z,7.07
2022-07-27T21:01:06.917Z,2.90
2022-07-27T21:03:34.467Z,4.82
2022-07-27T21:06:01.425Z,2.80
2022-07-27T21:08:28.645Z,4.30
2022-07-27T21:10:55.236Z,2.67
2022-07-27T21:13:21.753Z,6.07
2022-07-27T21:15:48.489Z,1.65
2022-07-27T21:18:15.010Z,5.28
2022-07-27T21:20:41.603Z,1.60
2022-07-27T21:23:26.584Z,3.42
2022-07-27T21:25:53.138Z,6.07
2022-07-27T21:28:23.109Z,7.47
2022-07-27T21:30:51.784Z,1.80
2022-07-27T21:33:18.412Z,3.55
2022-07-27T21:35:45.134Z,1.23
2022-07-27T21:38:11.614Z,5.72
2022-07-27T21:40:38.137Z,2.88
2022-07-27T21:43:04.662Z,3.42
2022-07-27T21:45:31.342Z,1.70
2022-07-27T21:47:57.930Z,2.38
2022-07-27T21:50:24.471Z,2.35
2022-07-27T21:52:52.409Z,2.72
2022-07-27T21:55:23.406Z,3.85
2022-07-27T21:57:50.362Z,4.85
2022-07-27T22:00:17.770Z,2.50
2022-07-27T22:02:44.438Z,2.45
2022-07-27T22:05:11.066Z,1.83
2022-07-27T22:07:37.608Z,3.20
2022-07-27T22:10:04.198Z,3.45
2022-07-27T22:12:30.790Z,3.92
2022-07-27T22:14:57.298Z,5.35
2022-07-27T22:17:23.846Z,2.95
2022-07-27T22:19:50.313Z,3.50
2022-07-27T22:22:16.815Z,3.97
2022-07-27T22:24:43.323Z,4.97
2022-07-27T22:27:09.933Z,3.05
2022-07-27T22:29:36.532Z,1.83
2022-07-27T22:32:03.075Z,4.32
2022-07-27T22:34:29.891Z,4.72
2022-07-27T22:36:56.702Z,4.05
2022-07-27T22:39:23.149Z,6.13
2022-07-27T22:41:49.638Z,6.70
2022-07-27T22:44:19.121Z,4.55
2022-07-27T22:46:47.098Z,7.07
2022-07-27T22:49:13.645Z,2.15
2022-07-27T22:51:50.210Z,3.00
2022-07-27T22:54:19.675Z,3.08
2022-07-27T22:56:46.237Z,3.70
2022-07-27T22:59:12.769Z,3.92
2022-07-27T23:01:47.352Z,2.78
2022-07-27T23:04:15.389Z,2.40
2022-07-27T23:06:42.558Z,2.78
2022-07-27T23:09:09.075Z,2.38
2022-07-27T23:11:35.647Z,2.17
2022-07-27T23:14:02.120Z,2.42
2022-07-27T23:16:28.782Z,2.55
2022-07-27T23:18:55.479Z,2.47
2022-07-27T23:21:22.190Z,1.52
2022-07-27T23:23:52.179Z,1.85
2022-07-27T23:26:20.971Z,2.63
2022-07-27T23:28:52.704Z,1.13
2022-07-27T23:31:19.303Z,1.15
2022-07-27T23:33:45.893Z,1.17
2022-07-27T23:36:12.601Z,1.63
2022-07-27T23:38:39.096Z,1.58
2022-07-27T23:41:05.729Z,1.02
2022-07-27T23:43:32.262Z,2.17
2022-07-27T23:45:58.729Z,1.50
2022-07-27T23:48:25.282Z,3.92
2022-07-27T23:50:52.015Z,6.13
2022-07-27T23:53:18.518Z,1.90
2022-07-27T23:55:45.177Z,2.35
2022-07-27T23:58:11.658Z,4.72
